Time;durP1;ratioP1;P1;durP2;ratioP2;P2;SDS_P1;SDS_P2;PMS_P1;PMS_P2;Temp;Humidity;BMP_temperature;BMP_pressure;BME280_temperature;BME280_humidity;BME280_pressure;Samples;Min_cycle;Max_cycle;Signal;HPM_P1;HPM_P2
2021/09/01 00:01:04;;;;;;;4.93;4.43;;;16.50;99.90;;;;;;5040443;28;20460;-77
2021/09/01 00:03:33;;;;;;;5.80;5.30;;;16.50;99.90;;;;;;5046494;28;20447;-78
2021/09/01 00:06:01;;;;;;;7.80;5.00;;;16.40;99.90;;;;;;5048023;28;20547;-77
2021/09/01 00:08:29;;;;;;;6.20;4.90;;;16.40;99.90;;;;;;5045055;28;20471;-80
2021/09/01 00:10:57;;;;;;;6.30;5.13;;;16.50;99.90;;;;;;5042385;28;20598;-79
2021/09/01 00:13:25;;;;;;;6.57;5.30;;;16.40;99.90;;;;;;5045197;28;20451;-79
2021/09/01 00:15:55;;;;;;;6.27;5.37;;;16.40;99.90;;;;;;5044883;28;20905;-78
2021/09/01 00:18:23;;;;;;;5.10;4.50;;;16.30;99.90;;;;;;5047255;28;20523;-78
2021/09/01 00:20:51;;;;;;;6.17;4.87;;;16.30;99.90;;;;;;5043501;28;20462;-79
2021/09/01 00:23:20;;;;;;;8.40;4.57;;;16.30;99.90;;;;;;5047710;28;20962;-79
2021/09/01 00:25:48;;;;;;;7.20;4.93;;;16.30;99.90;;;;;;5051231;28;20476;-81
2021/09/01 00:28:16;;;;;;;5.60;4.83;;;16.30;99.90;;;;;;5050451;28;21006;-78
2021/09/01 00:30:44;;;;;;;5.13;4.67;;;16.40;99.90;;;;;;5048979;28;20448;-79
2021/09/01 00:33:14;;;;;;;5.73;4.30;;;16.30;99.90;;;;;;5034765;28;21143;-77
2021/09/01 00:35:45;;;;;;;4.57;4.17;;;16.30;99.90;;;;;;5041603;28;20551;-78
2021/09/01 00:38:14;;;;;;;5.30;4.60;;;16.30;99.90;;;;;;5050059;28;20670;-78
2021/09/01 00:40:42;;;;;;;5.87;5.17;;;16.20;99.90;;;;;;5046948;28;20445;-78
2021/09/01 00:43:10;;;;;;;5.33;4.57;;;16.20;99.90;;;;;;5049823;28;20814;-80
2021/09/01 00:45:44;;;;;;;5.87;4.50;;;16.10;99.90;;;;;;5049758;28;20463;-78
2021/09/01 00:48:15;;;;;;;5.80;4.67;;;16.20;99.90;;;;;;5052092;28;20569;-80
2021/09/01 00:50:43;;;;;;;6.07;4.80;;;16.10;99.90;;;;;;5049633;28;20534;-79
2021/09/01 00:53:13;;;;;;;6.90;5.40;;;16.10;99.90;;;;;;5049822;28;20459;-78
2021/09/01 00:55:44;;;;;;;6.17;5.07;;;16.10;99.90;;;;;;5049716;28;20479;-77
2021/09/01 00:58:12;;;;;;;7.90;5.50;;;16.10;99.90;;;;;;5049507;28;20780;-77
2021/09/01 01:00:50;;;;;;;5.87;5.30;;;16.10;99.90;;;;;;5047881;28;20562;-78
2021/09/01 01:03:20;;;;;;;5.00;4.50;;;16.10;99.90;;;;;;5050739;28;20955;-80
2021/09/01 01:05:49;;;;;;;6.67;5.07;;;16.10;99.90;;;;;;5045449;28;20467;-79
2021/09/01 01:08:17;;;;;;;6.47;5.10;;;16.10;99.90;;;;;;5050998;28;20483;-79
2021/09/01 01:10:46;;;;;;;4.90;4.40;;;16.00;99.90;;;;;;5048605;28;20451;-79
2021/09/01 01:13:16;;;;;;;5.23;4.73;;;16.00;99.90;;;;;;5050450;28;20973;-80
2021/09/01 01:15:44;;;;;;;9.23;4.70;;;16.00;99.90;;;;;;5049490;28;20474;-79
2021/09/01 01:18:13;;;;;;;6.50;4.83;;;16.00;99.90;;;;;;5049932;28;20857;-81
2021/09/01 01:20:48;;;;;;;6.50;5.03;;;15.90;99.90;;;;;;5044770;28;20461;-79
2021/09/01 01:23:17;;;;;;;5.50;4.93;;;15.90;99.90;;;;;;5037731;28;20445;-78
2021/09/01 01:25:47;;;;;;;5.40;4.50;;;15.90;99.90;;;;;;5050844;28;20479;-80
2021/09/01 01:28:15;;;;;;;4.70;4.30;;;15.90;99.90;;;;;;5036282;28;21014;-78
2021/09/01 01:30:44;;;;;;;6.17;5.23;;;15.90;99.90;;;;;;5047931;28;20950;-78
2021/09/01 01:33:13;;;;;;;5.30;4.70;;;15.90;99.90;;;;;;5040847;28;20457;-79
2021/09/01 01:35:44;;;;;;;5.13;4.20;;;15.90;99.90;;;;;;5036427;28;20542;-79
2021/09/01 01:38:16;;;;;;;8.67;4.53;;;15.90;99.90;;;;;;5045178;28;20506;-79
2021/09/01 01:40:46;;;;;;;6.20;4.80;;;15.80;99.90;;;;;;5042656;28;20455;-79
2021/09/01 01:43:15;;;;;;;4.67;4.20;;;15.80;99.90;;;;;;5056229;28;20483;-79
2021/09/01 01:45:45;;;;;;;5.53;5.03;;;15.80;99.90;;;;;;5028365;28;20526;-78
2021/09/01 01:48:14;;;;;;;5.47;4.90;;;15.80;99.90;;;;;;5032719;28;20471;-78
2021/09/01 01:50:46;;;;;;;5.43;4.80;;;15.70;99.90;;;;;;5048510;28;20801;-79
2021/09/01 01:53:14;;;;;;;6.57;4.73;;;15.70;99.90;;;;;;5050416;28;20573;-78
2021/09/01 01:55:42;;;;;;;5.27;4.77;;;15.70;99.90;;;;;;5046434;28;20479;-78
2021/09/01 01:58:12;;;;;;;6.37;5.00;;;15.70;99.90;;;;;;5049561;28;20477;-80
2021/09/01 02:00:40;;;;;;;6.33;4.57;;;15.70;99.90;;;;;;5047170;28;20548;-77
2021/09/01 02:03:08;;;;;;;6.57;5.50;;;15.80;99.90;;;;;;5049656;28;20670;-79
2021/09/01 02:05:36;;;;;;;6.60;5.90;;;15.80;99.90;;;;;;5049030;28;20471;-81
2021/09/01 02:08:05;;;;;;;5.43;4.67;;;15.80;99.90;;;;;;5048507;28;20455;-78
2021/09/01 02:10:33;;;;;;;5.90;4.90;;;15.80;99.90;;;;;;5048212;28;20448;-77
2021/09/01 02:13:01;;;;;;;6.60;4.63;;;15.70;99.90;;;;;;5050523;28;20463;-77
2021/09/01 02:15:31;;;;;;;5.23;4.73;;;15.60;99.90;;;;;;5046329;28;20479;-77
2021/09/01 02:17:59;;;;;;;5.70;4.83;;;15.60;99.90;;;;;;5047929;28;20542;-77
2021/09/01 02:20:28;;;;;;;6.53;4.90;;;15.60;99.90;;;;;;5045134;28;20460;-79
2021/09/01 02:22:56;;;;;;;5.93;5.00;;;15.60;99.90;;;;;;5050099;28;20458;-78
2021/09/01 02:25:26;;;;;;;5.27;4.60;;;15.60;99.90;;;;;;5047365;28;20474;-79
2021/09/01 02:27:55;;;;;;;4.87;4.33;;;15.60;99.90;;;;;;5050053;28;20836;-78
2021/09/01 02:30:23;;;;;;;5.63;4.17;;;15.60;99.90;;;;;;5043605;28;20486;-79
2021/09/01 02:32:53;;;;;;;6.63;5.17;;;15.60;81.20;;;;;;5048891;28;20513;-79
2021/09/01 02:35:21;;;;;;;6.20;5.33;;;15.60;85.80;;;;;;5046911;28;20467;-78
2021/09/01 02:37:52;;;;;;;6.77;5.40;;;15.60;99.90;;;;;;5047822;28;20861;-78
2021/09/01 02:40:21;;;;;;;7.23;4.93;;;15.60;99.90;;;;;;5045055;28;20465;-79
2021/09/01 02:42:49;;;;;;;7.50;5.93;;;15.60;99.90;;;;;;5036898;28;20443;-80
2021/09/01 02:45:17;;;;;;;6.70;6.10;;;15.60;99.90;;;;;;5046750;28;20475;-79
2021/09/01 02:47:46;;;;;;;6.00;4.70;;;15.50;99.90;;;;;;5047732;28;20525;-79
2021/09/01 02:50:16;;;;;;;6.30;5.03;;;15.50;69.50;;;;;;5046785;28;20871;-79
2021/09/01 02:52:44;;;;;;;8.93;5.57;;;15.50;75.30;;;;;;5049085;28;20780;-81
2021/09/01 02:55:12;;;;;;;7.50;5.70;;;15.50;91.50;;;;;;5047550;28;20478;-82
2021/09/01 02:57:40;;;;;;;5.70;5.03;;;15.50;99.90;;;;;;5046960;28;20865;-80
2021/09/01 03:00:10;;;;;;;6.40;4.90;;;15.50;82.90;;;;;;5046846;28;20525;-79
2021/09/01 03:02:38;;;;;;;6.10;5.00;;;15.50;53.90;;;;;;5047263;28;20459;-81
2021/09/01 03:05:08;;;;;;;8.10;5.73;;;15.50;58.50;;;;;;5046701;28;20482;-78
2021/09/01 03:07:37;;;;;;;7.20;5.97;;;15.40;74.70;;;;;;5047176;28;20505;-78
2021/09/01 03:10:06;;;;;;;11.67;5.47;;;15.40;79.80;;;;;;5046151;28;20481;-78
2021/09/01 03:12:34;;;;;;;6.20;5.07;;;15.40;58.50;;;;;;5047977;28;20469;-80
2021/09/01 03:15:02;;;;;;;5.60;4.87;;;15.40;59.50;;;;;;5048101;28;21029;-78
2021/09/01 03:17:31;;;;;;;9.53;5.20;;;15.40;27.30;;;;;;5048298;28;20542;-79
2021/09/01 03:19:59;;;;;;;6.40;5.40;;;15.40;37.80;;;;;;5045240;28;20461;-80
2021/09/01 03:22:27;;;;;;;7.63;5.67;;;15.20;59.00;;;;;;5047317;28;20456;-80
2021/09/01 03:24:57;;;;;;;11.00;6.97;;;15.30;68.10;;;;;;5048158;28;20482;-78
2021/09/01 03:27:26;;;;;;;11.60;7.80;;;15.30;93.10;;;;;;5046570;28;20549;-78
2021/09/01 03:29:54;;;;;;;10.77;9.27;;;15.40;99.90;;;;;;5046420;28;20506;-79
2021/09/01 03:32:22;;;;;;;7.60;5.80;;;15.30;99.90;;;;;;5047030;28;20454;-79
2021/09/01 03:34:51;;;;;;;8.87;7.83;;;15.40;99.90;;;;;;5042423;28;20478;-78
2021/09/01 03:37:19;;;;;;;11.23;7.10;;;15.30;99.90;;;;;;5046110;28;20520;-79
2021/09/01 03:39:47;;;;;;;9.70;7.13;;;15.30;90.00;;;;;;5046834;28;20498;-78
2021/09/01 03:42:17;;;;;;;10.80;7.70;;;15.30;58.80;;;;;;5044672;28;20497;-80
2021/09/01 03:44:45;;;;;;;9.20;6.57;;;15.20;59.60;;;;;;5046873;28;20482;-78
2021/09/01 03:47:13;;;;;;;11.00;7.37;;;15.20;58.50;;;;;;5046016;28;20865;-79
2021/09/01 03:49:41;;;;;;;7.23;5.50;;;15.20;65.50;;;;;;5046559;28;20483;-79
2021/09/01 03:52:09;;;;;;;8.43;6.70;;;15.20;58.60;;;;;;5046762;28;20443;-78
2021/09/01 03:54:37;;;;;;;8.17;6.30;;;15.20;46.60;;;;;;5047643;28;21202;-78
2021/09/01 03:57:06;;;;;;;9.73;6.70;;;15.20;26.10;;;;;;5040058;28;21010;-77
2021/09/01 03:59:35;;;;;;;8.63;6.77;;;15.20;12.20;;;;;;5044195;28;20946;-79
2021/09/01 04:02:05;;;;;;;12.40;8.40;;;15.20;12.80;;;;;;5045829;28;20473;-81
2021/09/01 04:04:34;;;;;;;11.63;7.30;;;15.10;21.30;;;;;;5047113;28;20486;-80
2021/09/01 04:07:02;;;;;;;10.33;7.80;;;15.10;25.30;;;;;;5044730;28;20455;-79
2021/09/01 04:09:31;;;;;;;8.27;6.80;;;15.10;1.00;;;;;;5044440;28;20479;-82
2021/09/01 04:11:59;;;;;;;10.37;6.90;;;15.10;1.00;;;;;;5043871;28;20451;-79
2021/09/01 04:14:27;;;;;;;10.33;7.10;;;15.10;1.00;;;;;;5043123;28;21053;-79
2021/09/01 04:16:57;;;;;;;9.13;6.40;;;15.10;1.00;;;;;;5042263;28;20832;-79
2021/09/01 04:19:25;;;;;;;8.93;6.53;;;15.00;29.20;;;;;;5044066;28;20954;-80
2021/09/01 04:21:53;;;;;;;11.93;7.83;;;15.10;50.40;;;;;;5046627;28;20458;-79
2021/09/01 04:24:21;;;;;;;12.60;6.57;;;15.10;99.90;;;;;;5046751;28;20528;-79
2021/09/01 04:26:50;;;;;;;8.43;7.30;;;15.10;50.50;;;;;;5042071;28;20509;-76
2021/09/01 04:29:18;;;;;;;7.30;6.60;;;15.10;1.00;;;;;;5053577;28;20455;-78
2021/09/01 04:31:46;;;;;;;8.97;6.33;;;15.00;1.00;;;;;;5047551;28;20458;-78
2021/09/01 04:34:15;;;;;;;16.43;6.53;;;15.00;1.00;;;;;;5049016;28;20515;-79
2021/09/01 04:36:44;;;;;;;6.47;5.30;;;15.00;1.00;;;;;;5051782;28;20604;-80
2021/09/01 04:39:12;;;;;;;11.03;6.50;;;15.00;1.00;;;;;;5038892;28;20529;-79
2021/09/01 04:41:40;;;;;;;10.13;6.37;;;15.00;1.00;;;;;;5047629;28;20439;-77
2021/09/01 04:44:08;;;;;;;7.63;5.47;;;14.90;1.00;;;;;;5045804;28;21064;-80
2021/09/01 04:46:36;;;;;;;5.97;5.17;;;14.80;1.00;;;;;;5043012;28;20453;-80
2021/09/01 04:49:04;;;;;;;8.33;6.53;;;14.90;1.00;;;;;;5062318;28;20486;-79
2021/09/01 04:51:34;;;;;;;7.00;5.83;;;14.90;1.00;;;;;;5047485;28;20476;-80
2021/09/01 04:54:02;;;;;;;5.80;5.03;;;14.90;1.00;;;;;;5049663;28;20532;-81
2021/09/01 04:56:31;;;;;;;8.43;6.00;;;14.90;1.00;;;;;;5049501;28;20484;-80
2021/09/01 04:58:59;;;;;;;8.00;5.27;;;14.90;1.00;;;;;;5047771;28;20484;-77
2021/09/01 05:01:27;;;;;;;7.40;5.60;;;14.90;1.00;;;;;;5047420;28;20512;-78
2021/09/01 05:03:56;;;;;;;7.30;5.40;;;14.80;1.00;;;;;;5046626;28;20455;-80
2021/09/01 05:06:26;;;;;;;5.77;5.17;;;14.80;1.00;;;;;;5047659;28;20473;-78
2021/09/01 05:08:56;;;;;;;6.50;5.60;;;14.70;1.00;;;;;;5048588;28;20451;-78
2021/09/01 05:11:25;;;;;;;6.13;5.40;;;14.80;1.00;;;;;;5048691;28;21013;-79
2021/09/01 05:13:53;;;;;;;8.70;5.93;;;14.80;1.00;;;;;;5053238;28;20466;-82
2021/09/01 05:16:21;;;;;;;8.02;5.82;;;14.80;1.00;;;;;;5038615;28;20483;-78
2021/09/01 05:18:49;;;;;;;7.70;5.70;;;14.70;2.60;;;;;;5042210;28;20219;-78
2021/09/01 05:21:19;;;;;;;6.53;5.63;;;14.80;9.70;;;;;;5050469;28;20439;-78
2021/09/01 05:23:53;;;;;;;6.30;5.63;;;14.80;1.00;;;;;;5034259;28;20548;-78
2021/09/01 05:26:30;;;;;;;9.43;5.57;;;14.70;1.00;;;;;;5043663;28;20511;-79
2021/09/01 05:29:03;;;;;;;9.90;5.37;;;14.80;13.30;;;;;;5050246;28;20452;-79
2021/09/01 05:31:32;;;;;;;9.97;6.50;;;14.80;27.30;;;;;;5051463;28;20493;-79
2021/09/01 05:34:04;;;;;;;8.47;5.93;;;14.80;22.30;;;;;;5051485;28;20458;-79
2021/09/01 05:36:34;;;;;;;8.43;4.83;;;14.80;28.60;;;;;;5051017;28;20462;-77
2021/09/01 05:39:02;;;;;;;8.37;5.60;;;14.80;31.50;;;;;;5062853;28;20535;-78
2021/09/01 05:41:32;;;;;;;7.37;5.83;;;14.80;27.40;;;;;;5048335;28;20478;-78
2021/09/01 05:44:01;;;;;;;6.53;5.70;;;14.80;68.20;;;;;;5050795;28;20474;-78
2021/09/01 05:46:32;;;;;;;9.27;5.63;;;14.80;78.70;;;;;;5061431;28;22827;-77
2021/09/01 05:49:01;;;;;;;8.63;6.27;;;14.80;99.90;;;;;;5049020;28;20549;-77
2021/09/01 05:51:29;;;;;;;6.13;5.50;;;14.80;99.90;;;;;;5051991;28;20478;-75
2021/09/01 05:53:58;;;;;;;7.90;5.37;;;14.80;99.90;;;;;;5050728;28;20605;-80
2021/09/01 05:56:30;;;;;;;6.43;5.30;;;14.80;99.90;;;;;;5047688;28;20454;-80
2021/09/01 05:59:07;;;;;;;7.83;5.43;;;14.90;99.90;;;;;;5049496;28;20963;-79
2021/09/01 06:01:40;;;;;;;8.17;5.80;;;14.90;99.90;;;;;;5048263;28;20456;-78
2021/09/01 06:04:10;;;;;;;10.30;7.50;;;14.80;99.90;;;;;;5049818;28;21007;-77
2021/09/01 06:06:41;;;;;;;9.97;7.03;;;14.60;1.00;;;;;;5053476;28;20447;-78
2021/09/01 06:09:09;;;;;;;8.77;7.53;;;14.70;93.10;;;;;;5050817;28;20447;-83
2021/09/01 06:11:40;;;;;;;10.87;7.53;;;14.70;99.90;;;;;;5049543;28;20486;-78
2021/09/01 06:14:10;;;;;;;7.47;6.77;;;14.90;4.90;;;;;;5052731;28;20494;-78
2021/09/01 06:16:38;;;;;;;15.27;7.80;;;15.10;1.00;;;;;;5050718;28;20467;-79
2021/09/01 06:19:06;;;;;;;9.87;7.23;;;15.20;1.00;;;;;;5042784;28;20452;-81
2021/09/01 06:21:35;;;;;;;12.63;7.80;;;15.20;1.00;;;;;;5034184;28;20563;-78
2021/09/01 06:24:05;;;;;;;7.27;6.23;;;15.30;99.90;;;;;;5049871;28;20450;-76
2021/09/01 06:26:33;;;;;;;9.97;6.73;;;15.30;1.00;;;;;;5049456;28;20447;-79
2021/09/01 06:29:01;;;;;;;10.33;7.90;;;15.50;1.00;;;;;;5045756;28;20534;-78
2021/09/01 06:31:35;;;;;;;9.60;7.20;;;15.60;1.00;;;;;;5044632;28;20467;-77
2021/09/01 06:34:03;;;;;;;10.23;7.77;;;15.70;99.90;;;;;;5043088;28;20899;-76
2021/09/01 06:36:31;;;;;;;8.10;6.40;;;15.80;99.90;;;;;;5050521;28;20467;-77
2021/09/01 06:39:00;;;;;;;10.10;6.13;;;15.90;99.90;;;;;;5052879;28;20454;-77
2021/09/01 06:41:28;;;;;;;8.43;6.70;;;16.00;99.90;;;;;;5041102;28;21280;-79
2021/09/01 06:43:56;;;;;;;7.77;6.57;;;16.00;99.90;;;;;;5047627;28;20444;-77
2021/09/01 06:46:24;;;;;;;8.77;7.90;;;16.10;99.90;;;;;;5046491;28;20959;-78
2021/09/01 06:48:54;;;;;;;9.07;6.67;;;16.10;99.90;;;;;;5050643;28;20447;-77
2021/09/01 06:51:22;;;;;;;8.23;6.90;;;16.20;99.90;;;;;;5049014;28;20472;-77
2021/09/01 06:53:51;;;;;;;11.33;7.50;;;16.30;99.90;;;;;;5049035;28;20455;-76
2021/09/01 06:56:19;;;;;;;9.43;7.53;;;16.50;99.90;;;;;;5042661;28;20484;-77
2021/09/01 06:58:57;;;;;;;9.53;8.17;;;16.60;99.90;;;;;;5050276;28;20951;-77
2021/09/01 07:01:25;;;;;;;12.23;8.20;;;16.70;99.90;;;;;;5041075;28;20487;-79
2021/09/01 07:03:56;;;;;;;8.90;7.83;;;16.80;99.90;;;;;;5052218;28;20493;-81
2021/09/01 07:06:25;;;;;;;10.90;8.37;;;16.90;99.90;;;;;;5039945;28;20500;-79
2021/09/01 07:08:53;;;;;;;10.90;8.37;;;17.00;99.90;;;;;;5050430;28;20441;-77
2021/09/01 07:11:21;;;;;;;8.47;7.57;;;17.10;99.90;;;;;;5045805;28;20509;-78
2021/09/01 07:13:49;;;;;;;9.67;7.47;;;17.10;99.90;;;;;;5047860;28;20457;-77
2021/09/01 07:16:18;;;;;;;10.40;8.60;;;17.10;99.90;;;;;;5046862;28;21279;-79
2021/09/01 07:18:46;;;;;;;10.83;7.90;;;17.20;99.90;;;;;;5049177;28;20859;-78
2021/09/01 07:21:16;;;;;;;8.20;7.40;;;17.20;99.90;;;;;;5043781;28;20499;-78
2021/09/01 07:23:44;;;;;;;11.30;8.77;;;17.20;99.90;;;;;;5049324;28;20457;-80
2021/09/01 07:26:13;;;;;;;10.23;8.17;;;17.20;99.90;;;;;;5044987;28;20624;-75
2021/09/01 07:28:41;;;;;;;8.50;6.40;;;17.30;99.90;;;;;;5046987;28;20472;-78
2021/09/01 07:31:10;;;;;;;8.80;6.93;;;17.30;99.90;;;;;;5042007;28;20459;-77
2021/09/01 07:33:39;;;;;;;9.10;7.93;;;17.40;99.90;;;;;;5047841;28;20568;-77
2021/09/01 07:36:07;;;;;;;8.20;7.33;;;17.50;1.00;;;;;;5046555;28;20543;-80
2021/09/01 07:38:37;;;;;;;8.10;6.83;;;17.20;38.70;;;;;;5046969;28;20481;-77
2021/09/01 07:41:05;;;;;;;6.87;6.20;;;17.70;1.00;;;;;;5043871;28;21052;-79
2021/09/01 07:43:33;;;;;;;8.10;6.97;;;17.80;1.00;;;;;;5046836;28;20461;-77
2021/09/01 07:46:02;;;;;;;9.50;6.47;;;18.00;99.90;;;;;;5057802;28;20470;-77
2021/09/01 07:48:30;;;;;;;6.77;5.67;;;18.10;1.00;;;;;;5044993;28;20509;-77
2021/09/01 07:50:59;;;;;;;11.37;5.60;;;18.20;99.90;;;;;;5045153;28;20519;-76
2021/09/01 07:53:27;;;;;;;7.57;6.47;;;18.30;99.90;;;;;;5048463;28;20443;-78
2021/09/01 07:55:57;;;;;;;5.20;4.70;;;18.40;1.00;;;;;;5042071;28;20486;-80
2021/09/01 07:58:25;;;;;;;7.87;5.40;;;18.70;53.00;;;;;;5049152;28;20801;-76
2021/09/01 08:00:53;;;;;;;5.47;4.87;;;18.60;1.00;;;;;;5041781;28;20455;-78
2021/09/01 08:03:22;;;;;;;7.10;4.90;;;18.70;1.00;;;;;;5046934;28;20501;-77
2021/09/01 08:05:50;;;;;;;6.03;5.03;;;18.80;1.00;;;;;;5046447;28;20463;-79
2021/09/01 08:08:18;;;;;;;6.43;4.47;;;18.90;1.00;;;;;;5046809;28;20508;-79
2021/09/01 08:10:46;;;;;;;5.53;4.80;;;19.00;1.00;;;;;;5042776;28;20454;-78
2021/09/01 08:13:16;;;;;;;6.00;4.97;;;19.20;1.00;;;;;;5045403;28;20894;-76
2021/09/01 08:15:45;;;;;;;10.00;6.10;;;19.20;1.00;;;;;;5041713;28;20472;-79
2021/09/01 08:18:13;;;;;;;7.30;5.00;;;19.30;99.90;;;;;;5048145;28;20487;-79
2021/09/01 08:20:44;;;;;;;6.80;4.47;;;19.30;99.90;;;;;;5042995;28;20484;-78
2021/09/01 08:23:13;;;;;;;6.07;5.37;;;19.30;99.90;;;;;;5047276;28;20448;-79
2021/09/01 08:25:41;;;;;;;5.80;4.90;;;19.40;99.90;;;;;;5044340;28;20467;-75
2021/09/01 08:28:09;;;;;;;5.10;4.30;;;19.40;99.90;;;;;;5046170;28;20456;-77
2021/09/01 08:30:38;;;;;;;5.13;4.33;;;19.50;99.90;;;;;;5047143;28;20513;-75
2021/09/01 08:33:07;;;;;;;5.47;4.20;;;19.50;99.90;;;;;;5047174;28;20902;-80
2021/09/01 08:35:35;;;;;;;4.50;3.97;;;19.60;99.90;;;;;;5047388;28;20470;-80
2021/09/01 08:38:04;;;;;;;5.40;4.90;;;19.60;99.90;;;;;;5046416;28;20451;-81
2021/09/01 08:40:32;;;;;;;6.30;4.40;;;19.60;99.90;;;;;;5047535;28;20435;-76
2021/09/01 08:43:01;;;;;;;5.07;3.90;;;19.70;99.90;;;;;;5040075;28;20457;-77
2021/09/01 08:45:29;;;;;;;6.47;4.20;;;19.80;99.90;;;;;;5044677;28;20466;-77
2021/09/01 08:48:00;;;;;;;6.30;4.53;;;19.80;99.90;;;;;;5049313;28;20522;-80
2021/09/01 08:50:29;;;;;;;5.57;3.80;;;19.80;99.90;;;;;;5046529;28;20452;-77
2021/09/01 08:52:57;;;;;;;4.60;4.20;;;19.90;94.00;;;;;;5046179;28;20576;-77
2021/09/01 08:55:28;;;;;;;6.47;5.13;;;20.00;76.10;;;;;;5049429;28;20499;-76
2021/09/01 08:57:56;;;;;;;4.27;3.83;;;20.00;23.30;;;;;;5047541;28;20464;-82
2021/09/01 09:00:24;;;;;;;4.23;2.93;;;20.00;1.00;;;;;;5048173;28;20459;-79
2021/09/01 09:02:54;;;;;;;3.70;3.40;;;20.10;1.00;;;;;;5052845;28;20883;-76
2021/09/01 09:05:35;;;;;;;4.57;3.47;;;20.20;1.00;;;;;;5048973;28;20494;-75
2021/09/01 09:08:04;;;;;;;3.83;3.30;;;20.20;1.00;;;;;;5048883;28;20487;-78
2021/09/01 09:10:34;;;;;;;3.40;3.10;;;20.20;1.00;;;;;;5047467;28;20455;-78
2021/09/01 09:13:05;;;;;;;2.90;2.50;;;20.20;1.00;;;;;;5047319;28;20971;-77
2021/09/01 09:15:34;;;;;;;4.73;4.03;;;20.30;1.00;;;;;;5041978;28;20541;-74
2021/09/01 09:18:03;;;;;;;4.60;3.37;;;20.40;1.00;;;;;;5035865;28;20433;-76
2021/09/01 09:20:34;;;;;;;3.03;2.83;;;20.40;1.00;;;;;;5048599;28;20443;-79
2021/09/01 09:23:05;;;;;;;3.87;3.57;;;20.40;1.00;;;;;;5050189;28;20493;-78
2021/09/01 09:25:35;;;;;;;5.90;3.47;;;20.50;1.00;;;;;;5051952;28;20459;-78
2021/09/01 09:28:05;;;;;;;2.77;2.57;;;20.60;1.00;;;;;;5045808;28;20467;-77
2021/09/01 09:30:40;;;;;;;4.03;2.73;;;20.60;1.00;;;;;;5047754;28;20546;-81
2021/09/01 09:33:12;;;;;;;3.53;3.23;;;20.70;1.00;;;;;;5049398;28;20846;-79
2021/09/01 09:35:58;;;;;;;4.00;3.60;;;20.70;1.00;;;;;;5047306;28;20490;-79
2021/09/01 09:38:35;;;;;;;4.43;3.10;;;20.70;99.90;;;;;;5049587;28;20539;-79
2021/09/01 09:41:05;;;;;;;3.53;2.77;;;20.70;1.00;;;;;;5049635;28;20455;-79
2021/09/01 09:43:33;;;;;;;4.07;3.43;;;20.70;1.00;;;;;;5052404;28;20938;-79
2021/09/01 09:46:09;;;;;;;4.13;3.03;;;20.80;99.90;;;;;;5052411;28;20812;-78
2021/09/01 09:48:39;;;;;;;2.63;2.43;;;20.70;99.90;;;;;;5047793;28;20990;-79
2021/09/01 09:51:11;;;;;;;3.30;2.43;;;20.80;99.90;;;;;;5047504;28;20455;-76
2021/09/01 09:53:41;;;;;;;3.10;2.90;;;20.90;99.90;;;;;;5048509;28;21165;-78
2021/09/01 09:56:18;;;;;;;2.47;2.27;;;21.00;99.90;;;;;;5044410;28;20575;-79
2021/09/01 09:58:48;;;;;;;3.30;3.00;;;21.00;99.90;;;;;;5049185;28;20509;-76
2021/09/01 10:01:18;;;;;;;3.07;2.77;;;21.10;99.90;;;;;;5046008;28;20487;-77
2021/09/01 10:03:47;;;;;;;3.70;3.20;;;21.10;99.90;;;;;;5050417;28;20440;-77
2021/09/01 10:06:18;;;;;;;3.80;3.20;;;21.20;99.90;;;;;;5048207;28;20443;-81
2021/09/01 10:08:48;;;;;;;3.33;3.07;;;21.30;99.90;;;;;;5045761;28;20467;-76
2021/09/01 10:11:19;;;;;;;2.90;2.63;;;21.30;99.90;;;;;;5048307;28;20456;-76
2021/09/01 10:13:49;;;;;;;3.20;2.47;;;21.30;99.90;;;;;;5046441;28;20886;-78
2021/09/01 10:16:28;;;;;;;3.83;3.53;;;21.30;99.90;;;;;;5046876;28;20453;-78
2021/09/01 10:19:06;;;;;;;3.17;2.90;;;21.30;99.90;;;;;;5049443;28;20454;-77
2021/09/01 10:21:39;;;;;;;2.63;2.43;;;21.30;99.90;;;;;;5044900;28;20460;-81
2021/09/01 10:24:19;;;;;;;3.07;2.87;;;21.30;99.90;;;;;;5048904;28;20503;-78
2021/09/01 10:27:03;;;;;;;2.90;2.40;;;21.30;99.90;;;;;;5047343;28;20470;-76
2021/09/01 10:29:49;;;;;;;2.33;2.03;;;21.30;99.90;;;;;;5049070;28;20459;-78
2021/09/01 10:32:23;;;;;;;3.17;2.90;;;21.30;99.90;;;;;;5048312;28;20471;-77
2021/09/01 10:35:36;;;;;;;3.57;3.27;;;21.30;99.90;;;;;;5047906;28;20481;-78
2021/09/01 10:38:06;;;;;;;3.93;2.97;;;21.30;99.90;;;;;;5029246;28;20608;-77
2021/09/01 10:41:04;;;;;;;2.60;2.40;;;21.40;99.90;;;;;;5046268;28;20827;-78
2021/09/01 10:43:33;;;;;;;2.43;2.23;;;21.50;99.90;;;;;;5049052;28;20829;-77
2021/09/01 10:46:01;;;;;;;4.50;2.77;;;21.60;99.90;;;;;;5046712;28;20481;-78
2021/09/01 10:48:30;;;;;;;3.10;2.90;;;21.70;99.90;;;;;;5046562;28;20467;-76
2021/09/01 10:50:58;;;;;;;3.00;2.30;;;21.70;99.90;;;;;;5047391;28;20536;-78
2021/09/01 10:53:29;;;;;;;3.47;2.50;;;21.70;99.90;;;;;;5048431;28;20474;-77
2021/09/01 10:56:01;;;;;;;3.30;2.40;;;21.70;99.90;;;;;;5043926;28;20545;-81
2021/09/01 10:58:34;;;;;;;3.00;2.70;;;21.80;99.90;;;;;;5048711;28;20635;-82
2021/09/01 11:01:15;;;;;;;2.50;2.30;;;21.80;99.90;;;;;;5041846;28;20506;-78
2021/09/01 11:03:49;;;;;;;3.40;3.10;;;21.80;99.90;;;;;;5043575;28;20468;-78
2021/09/01 11:06:23;;;;;;;3.43;3.13;;;21.80;99.90;;;;;;5048850;28;21035;-79
2021/09/01 11:09:06;;;;;;;2.83;2.47;;;21.80;99.90;;;;;;5050044;28;21117;-79
2021/09/01 11:11:53;;;;;;;2.50;2.30;;;21.70;99.90;;;;;;5047733;28;20510;-78
2021/09/01 11:14:37;;;;;;;2.70;2.47;;;21.80;99.90;;;;;;5039836;28;20503;-77
2021/09/01 11:17:08;;;;;;;3.70;3.23;;;21.80;99.90;;;;;;5040871;28;20485;-77
2021/09/01 11:19:37;;;;;;;3.23;2.90;;;21.90;99.90;;;;;;5036652;28;20456;-81
2021/09/01 11:22:07;;;;;;;3.90;2.87;;;21.80;99.90;;;;;;5044909;28;20519;-77
2021/09/01 11:24:49;;;;;;;2.80;2.50;;;21.80;99.90;;;;;;5042347;28;20477;-78
2021/09/01 11:27:19;;;;;;;3.13;2.73;;;21.80;99.90;;;;;;5042288;28;20457;-79
2021/09/01 11:29:47;;;;;;;2.73;2.50;;;21.70;99.90;;;;;;5043635;28;20851;-79
2021/09/01 11:32:17;;;;;;;3.87;3.47;;;21.70;99.90;;;;;;5046798;28;20450;-78
2021/09/01 11:34:46;;;;;;;3.73;3.43;;;21.80;99.90;;;;;;5044394;28;20488;-76
2021/09/01 11:37:15;;;;;;;4.60;3.00;;;21.90;99.90;;;;;;5045876;28;20467;-82
2021/09/01 11:39:46;;;;;;;3.50;2.30;;;21.90;99.90;;;;;;5046373;28;20537;-77
2021/09/01 11:42:29;;;;;;;3.73;2.70;;;22.00;99.90;;;;;;5048355;28;20463;-82
2021/09/01 11:45:10;;;;;;;2.37;2.17;;;22.00;99.90;;;;;;5048582;28;20969;-79
2021/09/01 11:47:43;;;;;;;7.40;3.13;;;22.00;99.90;;;;;;5045912;28;20478;-78
2021/09/01 11:50:16;;;;;;;2.40;2.13;;;22.00;99.90;;;;;;5046433;28;20467;-77
2021/09/01 11:52:51;;;;;;;3.20;2.90;;;22.10;99.90;;;;;;5045963;28;20458;-81
2021/09/01 11:55:24;;;;;;;2.73;2.53;;;22.20;99.90;;;;;;5049397;28;20478;-80
2021/09/01 11:57:52;;;;;;;6.40;3.80;;;22.20;99.90;;;;;;5041412;28;20450;-78
2021/09/01 12:00:21;;;;;;;6.10;3.67;;;22.30;99.90;;;;;;5045937;28;20446;-77
2021/09/01 12:02:51;;;;;;;8.00;4.97;;;22.30;99.90;;;;;;5041794;28;20916;-79
2021/09/01 12:05:37;;;;;;;3.20;2.73;;;22.40;99.90;;;;;;5049472;28;20468;-78
2021/09/01 12:08:06;;;;;;;5.30;3.97;;;22.40;99.90;;;;;;5040413;28;20840;-77
2021/09/01 12:10:36;;;;;;;4.30;3.87;;;22.50;99.90;;;;;;5036860;28;20450;-77
2021/09/01 12:13:04;;;;;;;5.63;2.80;;;22.50;99.90;;;;;;5053157;28;20467;-78
2021/09/01 12:15:33;;;;;;;4.77;3.50;;;22.50;99.90;;;;;;5048278;28;20482;-79
2021/09/01 12:18:03;;;;;;;7.53;3.63;;;22.50;99.90;;;;;;5047679;28;20451;-80
2021/09/01 12:20:33;;;;;;;4.53;3.30;;;22.50;99.90;;;;;;5063140;28;20451;-78
2021/09/01 12:23:13;;;;;;;4.53;2.53;;;22.40;99.90;;;;;;5048497;28;20446;-82
2021/09/01 12:25:43;;;;;;;2.97;2.70;;;22.40;99.90;;;;;;5044920;28;20986;-77
2021/09/01 12:28:13;;;;;;;3.07;2.77;;;22.40;99.90;;;;;;5045971;28;20451;-78
2021/09/01 12:30:43;;;;;;;2.73;2.53;;;22.50;99.90;;;;;;5045454;28;20449;-77
2021/09/01 12:33:13;;;;;;;3.30;3.00;;;22.40;99.90;;;;;;5044568;28;20537;-81
2021/09/01 12:35:43;;;;;;;3.30;2.50;;;22.40;99.90;;;;;;5045612;28;20488;-76
2021/09/01 12:38:22;;;;;;;4.57;2.50;;;22.40;99.90;;;;;;5045779;28;20454;-77
2021/09/01 12:40:52;;;;;;;4.10;3.30;;;22.40;99.90;;;;;;5045033;28;21334;-75
2021/09/01 12:43:20;;;;;;;2.67;2.43;;;22.30;99.90;;;;;;5044102;28;20457;-75
2021/09/01 12:45:59;;;;;;;3.13;2.83;;;22.30;99.90;;;;;;5046373;28;20754;-72
2021/09/01 12:48:34;;;;;;;2.70;2.50;;;22.30;99.90;;;;;;5045066;28;20457;-70
2021/09/01 12:51:03;;;;;;;3.13;2.83;;;22.40;99.90;;;;;;5044981;28;20473;-74
2021/09/01 12:53:33;;;;;;;3.33;2.90;;;22.30;99.90;;;;;;5045449;28;20454;-72
2021/09/01 12:56:02;;;;;;;3.00;2.80;;;22.30;99.90;;;;;;5028577;28;20995;-72
2021/09/01 12:58:30;;;;;;;3.00;2.80;;;22.30;99.90;;;;;;5044612;28;20519;-71
2021/09/01 13:00:59;;;;;;;3.77;3.43;;;22.20;99.90;;;;;;5045020;28;20478;-70
2021/09/01 13:03:27;;;;;;;3.83;3.30;;;22.20;99.90;;;;;;5047386;28;20545;-73